Terminal Aerodrome Forecast
Issued by NWS Topeka, KS

Home | Current Version | Previous Version | Graphics & Text | Print | Product List | Glossary On
Versions: 1 2 3 4 5 6 7 8 9 10 11 12 13 14 15 16 17 18 19 20 21 22 23 24 25 26 27
000
FTUS43 KTOP 010400 AAE
TAFTOP
TAF AMD
KTOP 010404Z 0104/0124 15012KT P6SM RA VCTS SCT040CB BKN090
      TEMPO 0106/0109 3SM TSRA SCT015 BKN025CB
     FM011300 33007KT P6SM SCT030 BKN150=

USA.gov is the U.S. government's official web portal to all federal, state and local government web resources and services.